Time;durP1;ratioP1;P1;durP2;ratioP2;P2;SDS_P1;SDS_P2;PMS_P1;PMS_P2;Temp;Humidity;BMP_temperature;BMP_pressure;BME280_temperature;BME280_humidity;BME280_pressure;Samples;Min_cycle;Max_cycle;Signal;HPM_P1;HPM_P2
2022/06/24 00:02:13;;;;;;;6.97;2.35;;;;;;;19.78;49.23;100567.44;5022916;28;20421;-88
2022/06/24 00:04:39;;;;;;;6.57;2.50;;;;;;;19.75;49.34;100565.13;5022985;28;20470;-88
2022/06/24 00:07:17;;;;;;;;;;;;;;;19.71;48.77;100568.53;5035001;28;20131;-88
2022/06/24 00:09:43;;;;;;;4.45;2.35;;;;;;;19.73;48.86;100563.69;5051221;28;19913;-89
2022/06/24 00:12:11;;;;;;;;;;;;;;;19.77;48.54;100571.19;5048024;28;20041;-89
2022/06/24 00:14:39;;;;;;;10.68;2.40;;;;;;;19.64;48.91;100565.00;5046916;28;19971;-89
2022/06/24 00:17:09;;;;;;;5.32;2.50;;;;;;;19.56;48.87;100574.28;5042842;28;20037;-88
2022/06/24 00:19:53;;;;;;;3.17;2.20;;;;;;;19.55;49.17;100576.19;5045272;28;20033;-88
2022/06/24 00:22:22;;;;;;;8.13;2.38;;;;;;;19.66;49.27;100574.63;5049587;28;20063;-87
2022/06/24 00:25:28;;;;;;;6.53;2.38;;;;;;;19.60;49.12;100565.44;5049673;28;20040;-89
2022/06/24 00:28:08;;;;;;;5.45;2.25;;;;;;;19.69;48.87;100574.22;5036051;28;20037;-89
2022/06/24 00:30:46;;;;;;;6.35;2.28;;;;;;;19.58;48.83;100555.81;5032316;28;20115;-89
2022/06/24 00:33:19;;;;;;;3.97;2.25;;;;;;;19.69;49.00;100574.22;5030505;28;20033;-88
2022/06/24 00:35:50;;;;;;;8.13;2.30;;;;;;;19.63;48.96;100575.06;5017685;28;20124;-86
2022/06/24 00:38:52;;;;;;;5.80;2.30;;;;;;;19.63;48.91;100575.06;5021953;28;20052;-85
2022/06/24 00:41:25;;;;;;;4.57;2.20;;;;;;;19.52;49.21;100567.59;5055087;28;20055;-87
2022/06/24 00:43:55;;;;;;;5.38;2.20;;;;;;;19.61;49.35;100582.63;5043134;28;20040;-88
2022/06/24 00:46:24;;;;;;;6.70;2.50;;;;;;;19.60;49.15;100576.34;5061479;28;20083;-88
2022/06/24 00:48:58;;;;;;;5.03;2.40;;;;;;;19.56;49.01;100568.84;5052315;28;20401;-88
2022/06/24 00:51:37;;;;;;;7.50;2.33;;;;;;;19.57;49.32;100581.41;5050776;28;20029;-87
2022/06/24 00:54:22;;;;;;;5.50;2.55;;;;;;;19.50;49.17;100561.53;5064890;28;20028;-86
2022/06/24 00:56:55;;;;;;;7.35;2.28;;;;;;;19.49;49.28;100578.97;5027151;28;20038;-86
2022/06/24 00:59:26;;;;;;;6.28;2.40;;;;;;;19.27;49.29;100560.25;5040193;28;20036;-86
2022/06/24 01:01:54;;;;;;;12.30;2.30;;;;;;;19.31;49.33;100572.38;5046000;28;20041;-87
2022/06/24 01:04:20;;;;;;;6.18;2.70;;;;;;;19.31;49.66;100582.44;5019840;28;20170;-87
2022/06/24 01:06:45;;;;;;;;;;;;;;;19.32;50.59;100578.69;5024738;28;20049;-86
2022/06/24 01:09:16;;;;;;;5.13;2.67;;;;;;;19.38;51.00;100572.31;5038678;28;19908;-86
2022/06/24 01:11:44;;;;;;;7.03;3.00;;;;;;;19.32;51.64;100562.31;5045720;28;20045;-86
2022/06/24 01:14:12;;;;;;;7.30;3.20;;;;;;;19.26;52.41;100557.75;5050012;28;20112;-86
2022/06/24 01:16:41;;;;;;;15.40;3.40;;;;;;;19.18;53.32;100567.03;5030292;28;20037;-87
2022/06/24 01:19:08;;;;;;;;;;;;;;;19.13;53.32;100564.97;5004207;28;20099;-87
2022/06/24 01:21:45;;;;;;;6.53;3.20;;;;;;;19.06;53.53;100568.75;5047611;28;19915;-86
2022/06/24 01:24:12;;;;;;;7.72;3.60;;;;;;;19.04;53.57;100565.44;5039971;28;20071;-86
2022/06/24 01:26:39;;;;;;;;;;;;;;;19.00;53.85;100564.22;5048465;28;20137;-86
2022/06/24 01:29:08;;;;;;;8.43;3.55;;;;;;;18.87;54.65;100554.22;5046934;28;19912;-85
2022/06/24 01:31:40;;;;;;;8.27;3.58;;;;;;;18.91;54.88;100572.63;5049941;28;20029;-85
2022/06/24 01:34:07;;;;;;;7.43;3.38;;;;;;;18.85;55.11;100569.97;5035310;28;20098;-86
2022/06/24 01:36:33;;;;;;;7.28;4.00;;;;;;;18.74;55.71;100577.72;5052593;28;20036;-86
2022/06/24 01:39:00;;;;;;;7.80;3.90;;;;;;;18.69;56.47;100579.44;5049561;28;20037;-86
2022/06/24 01:41:28;;;;;;;14.60;3.60;;;;;;;18.66;56.44;100572.53;5037333;28;20033;-86
2022/06/24 01:43:58;;;;;;;10.95;3.72;;;;;;;18.37;57.07;100565.72;5051218;28;20044;-86
2022/06/24 01:46:25;;;;;;;7.97;4.20;;;;;;;18.38;57.27;100566.53;5045482;28;20137;-86
2022/06/24 01:48:51;;;;;;;7.90;3.60;;;;;;;18.38;57.17;100569.25;5033674;28;20520;-87
2022/06/24 01:51:18;;;;;;;12.40;4.55;;;;;;;18.46;57.28;100585.38;5050744;28;20404;-86
2022/06/24 01:53:46;;;;;;;6.75;3.60;;;;;;;18.35;57.36;100567.81;5048978;28;20029;-85
2022/06/24 01:56:12;;;;;;;7.30;3.97;;;;;;;18.40;57.65;100575.34;5058963;28;20048;-86
2022/06/24 01:58:37;;;;;;;10.90;4.25;;;;;;;18.38;57.79;100572.00;5055210;28;20036;-87
2022/06/24 02:01:03;;;;;;;;;;;;;;;18.39;58.03;100570.94;5046897;28;20032;-86
2022/06/24 02:03:29;;;;;;;;;;;;;;;18.31;58.42;100572.88;5048060;28;19931;-87
2022/06/24 02:06:04;;;;;;;13.18;4.40;;;;;;;18.34;58.71;100582.47;5048557;28;19932;-87
2022/06/24 02:08:35;;;;;;;10.95;4.68;;;;;;;18.21;59.05;100580.63;5027756;28;20030;-85
2022/06/24 02:13:48;;;;;;;9.73;4.78;;;;;;;18.11;59.83;100582.94;5048497;28;20515;-86
2022/06/24 02:16:15;;;;;;;10.75;5.30;;;;;;;18.07;60.17;100576.25;5045016;28;20037;-86
2022/06/24 02:18:41;;;;;;;;;;;;;;;18.21;59.67;100577.06;5054355;28;20103;-86
2022/06/24 02:21:20;;;;;;;7.93;4.82;;;;;;;18.23;59.06;100575.81;5044483;28;19912;-86
2022/06/24 02:23:50;;;;;;;9.65;4.90;;;;;;;18.20;58.94;100570.78;5042061;28;20095;-86
2022/06/24 02:26:19;;;;;;;9.48;4.85;;;;;;;18.33;59.07;100583.50;5014686;28;20042;-87
2022/06/24 02:28:44;;;;;;;11.32;4.70;;;;;;;18.36;58.85;100574.94;5051315;28;20072;-88
2022/06/24 02:31:12;;;;;;;;;;;;;;;18.46;58.41;100578.03;5030998;28;20122;-86
2022/06/24 02:33:38;;;;;;;9.57;4.97;;;;;;;18.35;58.26;100567.81;5054104;28;19917;-86
2022/06/24 02:36:03;;;;;;;;;;;;;;;18.39;58.25;100566.34;5038726;28;20628;-86
2022/06/24 02:38:32;;;;;;;15.77;5.13;;;;;;;18.27;58.37;100574.34;5053058;28;20426;-85
2022/06/24 02:41:01;;;;;;;10.63;5.00;;;;;;;18.30;58.54;100576.63;5049471;28;20049;-86
2022/06/24 02:43:37;;;;;;;11.38;5.30;;;;;;;18.34;58.64;100572.44;5042647;28;20029;-85
2022/06/24 02:46:04;;;;;;;9.98;5.25;;;;;;;18.44;58.70;100576.59;5060662;28;20037;-85
2022/06/24 02:48:32;;;;;;;11.27;5.60;;;;;;;18.42;58.63;100567.78;5049531;28;20033;-86
2022/06/24 02:51:02;;;;;;;6.55;4.55;;;;;;;18.45;58.24;100562.78;5054621;28;20166;-86
2022/06/24 02:53:33;;;;;;;15.38;5.47;;;;;;;18.52;58.19;100568.19;5057544;28;20029;-86
2022/06/24 02:56:02;;;;;;;8.05;4.40;;;;;;;18.53;57.85;100580.75;5058941;28;20040;-85
2022/06/24 02:58:30;;;;;;;8.68;4.80;;;;;;;18.58;58.20;100580.09;5081884;28;20048;-85
2022/06/24 03:00:55;;;;;;;9.57;4.88;;;;;;;18.58;58.31;100578.19;5055578;28;20036;-85
2022/06/24 03:03:21;;;;;;;;;;;;;;;18.68;58.07;100578.59;5054533;28;20032;-86
2022/06/24 03:05:46;;;;;;;;;;;;;;;18.56;58.30;100580.31;5035124;28;19912;-85
2022/06/24 03:08:14;;;;;;;8.93;4.65;;;;;;;18.44;59.08;100576.59;5042837;28;19916;-86
2022/06/24 03:10:40;;;;;;;10.57;4.88;;;;;;;18.31;59.14;100581.03;5052589;28;20063;-86
2022/06/24 03:13:09;;;;;;;11.60;5.10;;;;;;;18.52;58.53;100584.53;5032161;28;20519;-86
2022/06/24 03:15:34;;;;;;;;;;;;;;;18.59;58.25;100579.91;5032049;28;20025;-86
2022/06/24 03:18:02;;;;;;;6.47;4.35;;;;;;;18.56;57.63;100577.56;5033641;28;19908;-86
2022/06/24 03:20:27;;;;;;;8.20;4.47;;;;;;;18.70;57.56;100581.91;5037120;28;20036;-86
2022/06/24 03:22:53;;;;;;;10.00;4.75;;;;;;;18.81;57.53;100583.16;5050667;28;20123;-86
2022/06/24 03:25:20;;;;;;;;;;;;;;;18.86;57.24;100574.34;5047607;28;20433;-86
2022/06/24 03:27:45;;;;;;;8.63;4.32;;;;;;;18.82;56.52;100578.53;5071113;28;19998;-86
2022/06/24 03:30:16;;;;;;;;;;;;;;;18.76;56.25;100580.22;5011513;28;20048;-86
2022/06/24 03:32:45;;;;;;;10.18;4.05;;;;;;;18.71;56.13;100563.72;5033627;28;19916;-86
2022/06/24 03:35:13;;;;;;;14.52;4.40;;;;;;;18.87;55.88;100565.09;5029543;28;20047;-86
2022/06/24 03:37:45;;;;;;;6.50;4.20;;;;;;;19.18;55.40;100597.84;5033337;28;20032;-88
2022/06/24 03:40:12;;;;;;;10.20;3.97;;;;;;;19.28;55.24;100580.16;5052010;28;20044;-87
2022/06/24 03:42:37;;;;;;;13.63;4.18;;;;;;;19.33;54.37;100567.53;5039830;28;20025;-88
2022/06/24 03:45:07;;;;;;;;;;;;;;;19.34;54.85;100598.38;5038725;28;20044;-88
2022/06/24 03:47:32;;;;;;;9.75;3.72;;;;;;;19.38;54.17;100580.50;5064785;28;19978;-86
2022/06/24 03:49:59;;;;;;;;;;;;;;;19.61;53.77;100588.09;5049394;28;20060;-86
2022/06/24 03:52:26;;;;;;;5.88;3.60;;;;;;;19.65;53.01;100578.41;5055026;28;19916;-91
2022/06/24 03:54:56;;;;;;;7.40;3.70;;;;;;;19.61;52.70;100572.56;5038783;28;20044;-88
2022/06/24 03:57:27;;;;;;;11.55;3.97;;;;;;;19.64;52.47;100571.28;5079044;28;20029;-89
2022/06/24 04:00:00;;;;;;;7.97;3.63;;;;;;;19.98;51.70;100577.31;5048119;28;20048;-90
2022/06/24 04:02:26;;;;;;;7.70;3.60;;;;;;;20.12;51.47;100573.38;5019740;28;20123;-88
2022/06/24 04:04:56;;;;;;;6.32;3.28;;;;;;;20.32;50.21;100567.72;5053519;28;20037;-90
2022/06/24 04:07:28;;;;;;;9.05;3.35;;;;;;;20.58;49.76;100565.72;5032671;28;20044;-90
2022/06/24 04:09:59;;;;;;;5.60;3.05;;;;;;;20.95;48.92;100582.91;5051494;28;20166;-90
2022/06/24 04:12:26;;;;;;;6.88;2.85;;;;;;;21.14;47.94;100574.66;5019552;28;20051;-94
2022/06/24 04:17:38;;;;;;;9.40;3.20;;;;;;;22.00;46.74;100592.41;5041496;28;20039;-88
2022/06/24 04:20:06;;;;;;;9.35;3.20;;;;;;;22.26;46.05;100598.50;5031463;28;20041;-89
2022/06/24 04:22:37;;;;;;;8.18;3.80;;;;;;;22.49;45.07;100573.00;5050554;28;20067;-91
2022/06/24 04:25:05;;;;;;;10.40;3.65;;;;;;;22.87;44.50;100588.00;5048192;28;20056;-92
2022/06/24 04:27:50;;;;;;;8.65;3.58;;;;;;;23.26;44.29;100586.31;5016504;28;20127;-88
2022/06/24 04:30:18;;;;;;;6.53;3.28;;;;;;;23.62;43.31;100584.16;5003797;28;20044;-91
2022/06/24 04:32:51;;;;;;;10.60;3.40;;;;;;;23.63;42.99;100594.06;5032920;28;20032;-94
2022/06/24 04:35:17;;;;;;;9.45;3.42;;;;;;;23.89;42.90;100606.31;5021143;28;20522;-90
2022/06/24 04:38:01;;;;;;;9.70;3.67;;;;;;;23.78;42.42;100605.31;5054950;28;20085;-89
2022/06/24 04:40:30;;;;;;;9.52;3.42;;;;;;;23.83;42.50;100595.50;5042082;28;20132;-93
2022/06/24 04:43:01;;;;;;;7.60;2.97;;;;;;;23.88;42.58;100581.84;5035672;28;20044;-89
2022/06/24 04:46:00;;;;;;;12.07;3.67;;;;;;;23.77;42.83;100586.38;5075855;28;20119;-90
2022/06/24 04:48:26;;;;;;;12.32;4.30;;;;;;;23.74;42.42;100581.34;5053663;28;20045;-86
2022/06/24 04:50:55;;;;;;;9.80;3.47;;;;;;;23.86;42.63;100592.25;5069154;28;20045;-88
2022/06/24 04:53:24;;;;;;;8.65;3.00;;;;;;;23.96;42.52;100585.00;5061785;28;20036;-88
2022/06/24 04:55:53;;;;;;;6.78;3.50;;;;;;;23.78;42.40;100577.88;5044903;28;20032;-89
2022/06/24 04:58:19;;;;;;;16.00;3.95;;;;;;;24.05;42.53;100596.41;5062601;28;20044;-87
2022/06/24 05:00:49;;;;;;;9.73;3.25;;;;;;;24.01;42.28;100592.50;5073831;28;20149;-89
2022/06/24 05:03:31;;;;;;;13.80;2.92;;;;;;;23.75;42.30;100578.38;5071734;28;20045;-90
2022/06/24 05:05:58;;;;;;;4.95;2.70;;;;;;;23.85;42.26;100571.38;5041487;28;20095;-88
2022/06/24 05:08:25;;;;;;;12.35;3.40;;;;;;;23.80;42.33;100585.88;5048560;28;20558;-89
2022/06/24 05:10:57;;;;;;;13.60;3.60;;;;;;;23.80;42.87;100575.72;5034731;28;20468;-89
2022/06/24 05:13:24;;;;;;;20.50;3.75;;;;;;;23.88;43.02;100588.19;5073587;28;20109;-90
2022/06/24 05:15:50;;;;;;;5.50;3.08;;;;;;;23.75;43.14;100577.56;5054792;28;20056;-89
2022/06/24 05:18:18;;;;;;;14.25;3.60;;;;;;;23.64;42.66;100576.50;5035571;28;20029;-89
2022/06/24 05:20:51;;;;;;;11.20;3.65;;;;;;;23.79;42.95;100586.97;5057034;28;20489;-88
2022/06/24 05:23:22;;;;;;;13.40;3.40;;;;;;;23.71;43.39;100601.06;5079602;28;20039;-88
2022/06/24 05:25:51;;;;;;;48.78;4.50;;;;;;;23.59;43.12;100590.16;5092592;28;20107;-88
2022/06/24 05:28:17;;;;;;;11.20;2.80;;;;;;;23.66;42.69;100587.25;5093669;28;20036;-90
2022/06/24 05:30:43;;;;;;;10.75;3.10;;;;;;;23.71;42.62;100585.41;5053795;28;20043;-89
2022/06/24 05:33:11;;;;;;;12.13;3.30;;;;;;;23.79;43.03;100590.53;5052426;28;20040;-89
2022/06/24 05:35:38;;;;;;;10.93;3.13;;;;;;;23.74;42.50;100589.59;5085727;28;20036;-89
2022/06/24 05:38:06;;;;;;;6.88;3.00;;;;;;;23.80;42.54;100603.16;5074480;28;20041;-90
2022/06/24 05:40:40;;;;;;;10.82;2.95;;;;;;;23.76;42.76;100585.56;5091269;28;20032;-90
2022/06/24 05:43:09;;;;;;;8.77;2.80;;;;;;;23.63;43.10;100588.59;5073827;28;20031;-90
2022/06/24 05:45:35;;;;;;;10.15;2.78;;;;;;;23.85;42.70;100607.91;5063846;28;20045;-90
2022/06/24 05:48:08;;;;;;;8.55;2.90;;;;;;;23.83;43.07;100601.00;5059494;28;20036;-90
2022/06/24 05:50:37;;;;;;;7.03;2.85;;;;;;;23.90;43.23;100609.88;5073401;28;20049;-89
2022/06/24 05:55:49;;;;;;;12.95;3.15;;;;;;;24.26;42.49;100604.94;5065395;28;20178;-88
2022/06/24 05:58:14;;;;;;;5.65;2.75;;;;;;;24.29;41.90;100598.94;5056252;28;20033;-88
2022/06/24 06:00:42;;;;;;;4.65;2.78;;;;;;;24.27;42.32;100601.09;5075551;28;20024;-88
2022/06/24 06:03:11;;;;;;;7.35;2.90;;;;;;;24.54;41.75;100602.06;5057903;28;20405;-88
2022/06/24 06:06:04;;;;;;;5.50;2.65;;;;;;;24.47;41.04;100579.44;5047439;28;20488;-89
2022/06/24 06:09:05;;;;;;;10.55;2.80;;;;;;;24.64;40.75;100590.38;5021494;28;20091;-90
2022/06/24 06:11:38;;;;;;;10.13;3.00;;;;;;;24.84;40.76;100578.75;4951819;28;20043;-90
2022/06/24 06:14:18;;;;;;;16.38;3.30;;;;;;;24.96;40.86;100595.97;4947205;28;20054;-89
2022/06/24 06:16:58;;;;;;;7.70;3.05;;;;;;;25.21;40.47;100616.59;4952124;28;20039;-89
2022/06/24 06:19:37;;;;;;;8.00;3.38;;;;;;;25.34;40.11;100612.63;4970086;28;20046;-89
2022/06/24 06:22:27;;;;;;;10.10;2.72;;;;;;;25.26;39.69;100630.41;4958589;28;20177;-90
2022/06/24 06:25:10;;;;;;;12.10;2.67;;;;;;;25.48;39.76;100622.94;4944547;28;20113;-89
2022/06/24 06:28:20;;;;;;;5.88;2.60;;;;;;;25.66;39.30;100618.97;4924464;29;20035;-90
2022/06/24 06:30:55;;;;;;;11.55;3.25;;;;;;;25.74;39.03;100603.06;4913983;29;20051;-91
2022/06/24 06:33:39;;;;;;;15.43;3.15;;;;;;;26.03;38.71;100622.84;4914693;29;20036;-90
2022/06/24 06:36:11;;;;;;;10.15;2.80;;;;;;;26.03;38.07;100607.13;4953377;28;20105;-89
2022/06/24 06:39:03;;;;;;;7.80;2.80;;;;;;;26.02;38.05;100637.72;4945294;28;20408;-89
2022/06/24 06:41:55;;;;;;;;;;;;;;;25.95;38.04;100634.38;4994317;28;20036;-88
2022/06/24 06:44:26;;;;;;;4.18;2.30;;;;;;;25.84;38.15;100631.47;5044497;28;19999;-89
2022/06/24 06:46:52;;;;;;;4.47;2.60;;;;;;;25.82;38.68;100639.16;5046348;28;20042;-89
2022/06/24 06:49:32;;;;;;;5.40;2.78;;;;;;;25.26;39.43;100617.50;5057403;28;20044;-89
2022/06/24 06:52:30;;;;;;;7.65;2.90;;;;;;;25.38;39.43;100617.34;5050110;28;20075;-89
2022/06/24 06:55:08;;;;;;;8.88;3.30;;;;;;;25.65;39.55;100630.22;5048629;28;20075;-89
2022/06/24 06:58:08;;;;;;;9.98;3.05;;;;;;;25.53;39.74;100630.41;5040682;28;20508;-90
2022/06/24 07:04:10;;;;;;;7.22;2.90;;;;;;;25.48;39.56;100631.19;5050654;28;20032;-88
2022/06/24 07:06:54;;;;;;;5.82;3.05;;;;;;;25.84;38.89;100639.75;5034771;28;20131;-91
2022/06/24 07:09:29;;;;;;;7.45;2.78;;;;;;;25.60;39.36;100625.50;5065955;28;20041;-85
2022/06/24 07:12:27;;;;;;;;;;;;;;;;;;;;;
2022/06/24 07:15:04;;;;;;;10.05;3.53;;;;;;;25.55;39.37;100606.19;5050987;28;20077;-89
2022/06/24 07:18:09;;;;;;;8.05;3.00;;;;;;;25.82;39.20;100622.66;5041953;28;20028;-91
2022/06/24 07:20:46;;;;;;;11.40;3.10;;;;;;;25.81;39.10;100620.19;5075128;28;20040;-88
2022/06/24 07:23:13;;;;;;;7.30;3.03;;;;;;;25.78;39.30;100610.53;5060314;28;20044;-89
2022/06/24 07:26:23;;;;;;;9.68;3.08;;;;;;;26.12;39.40;100621.25;5057015;28;20488;-91
2022/06/24 07:29:08;;;;;;;8.43;3.05;;;;;;;25.95;39.85;100610.41;4994907;28;20156;-90
2022/06/24 07:31:40;;;;;;;6.75;3.10;;;;;;;25.97;39.79;100624.75;5036941;28;20036;-86
2022/06/24 07:34:33;;;;;;;6.70;2.92;;;;;;;26.06;39.43;100606.63;5071114;28;20040;-91
2022/06/24 07:37:08;;;;;;;10.18;3.30;;;;;;;26.29;38.95;100613.66;5066088;28;20041;-79
2022/06/24 07:39:35;;;;;;;7.65;3.20;;;;;;;26.50;38.60;100616.50;5048483;28;20049;-81
2022/06/24 07:42:27;;;;;;;8.57;3.33;;;;;;;26.88;38.44;100614.50;5070966;28;20063;-86
2022/06/24 07:44:54;;;;;;;11.70;4.10;;;;;;;26.92;38.28;100624.69;5080591;28;20040;-82
2022/06/24 07:47:20;;;;;;;6.53;3.22;;;;;;;27.04;37.70;100613.47;4994220;28;20151;-81
2022/06/24 07:49:48;;;;;;;7.20;2.95;;;;;;;27.06;37.79;100622.25;5051962;28;20106;-80
2022/06/24 07:52:15;;;;;;;7.80;3.28;;;;;;;27.00;37.29;100593.03;5081077;28;20051;-80
2022/06/24 07:54:43;;;;;;;13.70;3.17;;;;;;;27.36;37.41;100615.19;5043226;28;20077;-81
2022/06/24 07:57:10;;;;;;;8.52;3.17;;;;;;;27.67;36.30;100613.25;5055877;28;20036;-81
2022/06/24 07:59:39;;;;;;;10.68;2.97;;;;;;;27.73;36.17;100608.59;5037113;28;20040;-83
2022/06/24 08:02:09;;;;;;;8.00;3.03;;;;;;;27.98;35.89;100608.59;5081339;28;20032;-80
2022/06/24 08:04:38;;;;;;;5.50;2.78;;;;;;;28.36;35.29;100614.59;5077103;28;20127;-81
2022/06/24 08:07:08;;;;;;;15.15;4.07;;;;;;;28.75;34.70;100600.09;5040860;28;20060;-80
2022/06/24 08:09:37;;;;;;;8.48;2.88;;;;;;;29.15;33.68;100592.72;5035109;28;20033;-80
2022/06/24 08:12:03;;;;;;;6.35;2.78;;;;;;;29.35;33.46;100585.38;5071312;28;20024;-81
2022/06/24 08:14:29;;;;;;;6.03;2.90;;;;;;;29.46;33.44;100598.03;5052974;28;20597;-81
2022/06/24 08:16:55;;;;;;;4.95;2.72;;;;;;;29.56;32.75;100586.84;5054255;28;20036;-82
2022/06/24 08:19:21;;;;;;;6.55;2.33;;;;;;;29.60;32.52;100603.72;5031525;28;20033;-81
2022/06/24 08:21:46;;;;;;;13.18;3.00;;;;;;;29.53;32.79;100604.06;5053226;28;20039;-81
2022/06/24 08:24:13;;;;;;;5.65;3.13;;;;;;;29.24;33.40;100609.53;5070990;28;20466;-80
2022/06/24 08:26:39;;;;;;;14.27;3.80;;;;;;;29.39;33.20;100603.88;5053770;28;20040;-82
2022/06/24 08:29:05;;;;;;;6.55;2.70;;;;;;;29.70;33.09;100603.66;5036400;28;20036;-81
2022/06/24 08:31:30;;;;;;;8.40;2.80;;;;;;;29.98;32.49;100593.69;5053696;28;20064;-81
2022/06/24 08:33:56;;;;;;;10.73;2.88;;;;;;;30.21;32.46;100594.84;5071456;28;20039;-81
2022/06/24 08:36:25;;;;;;;10.80;3.00;;;;;;;30.38;31.88;100607.47;5071872;28;20036;-82
2022/06/24 08:38:52;;;;;;;4.65;2.75;;;;;;;29.83;32.39;100596.66;5037907;28;20029;-82
2022/06/24 08:41:20;;;;;;;4.60;2.75;;;;;;;29.36;33.03;100579.56;5045520;28;20052;-81
2022/06/24 08:43:46;;;;;;;7.25;3.63;;;;;;;29.88;32.78;100600.19;5033304;28;20036;-82
2022/06/24 08:46:12;;;;;;;4.18;2.70;;;;;;;29.89;32.71;100589.91;5027419;28;20144;-80
2022/06/24 08:48:38;;;;;;;9.35;2.88;;;;;;;30.01;32.42;100578.44;5042558;28;20197;-83
2022/06/24 08:51:03;;;;;;;7.93;3.00;;;;;;;30.44;31.84;100573.81;5044233;28;20143;-81
2022/06/24 08:53:29;;;;;;;4.68;2.78;;;;;;;30.38;31.91;100580.53;5043096;28;20075;-80
2022/06/24 08:55:55;;;;;;;5.97;2.55;;;;;;;30.41;31.76;100584.66;5057355;28;20048;-81
2022/06/24 08:58:21;;;;;;;9.38;2.92;;;;;;;30.95;31.21;100577.06;5023882;28;20029;-82
2022/06/24 09:00:47;;;;;;;6.03;2.80;;;;;;;31.27;31.13;100574.34;5035875;28;20032;-80
2022/06/24 09:03:12;;;;;;;7.60;2.50;;;;;;;30.76;31.38;100569.50;5045219;28;20047;-79
2022/06/24 09:05:38;;;;;;;8.07;2.55;;;;;;;31.36;30.24;100566.16;5057213;28;20519;-82
2022/06/24 09:08:07;;;;;;;24.02;3.10;;;;;;;31.76;30.08;100578.56;5052857;28;20037;-83
2022/06/24 09:10:38;;;;;;;7.90;2.60;;;;;;;32.11;29.34;100579.06;5052449;28;20036;-82
2022/06/24 09:13:04;;;;;;;5.35;2.50;;;;;;;32.53;28.28;100568.78;5052832;28;20047;-82
2022/06/24 09:15:29;;;;;;;7.18;2.60;;;;;;;32.67;28.76;100576.28;5049973;28;20437;-82
2022/06/24 09:17:55;;;;;;;3.40;2.53;;;;;;;32.97;27.70;100563.66;5032040;28;20556;-82
2022/06/24 09:20:27;;;;;;;8.23;3.00;;;;;;;32.98;27.84;100571.66;5050770;28;20034;-82
2022/06/24 09:23:02;;;;;;;5.03;2.70;;;;;;;32.51;27.91;100571.03;5054326;28;20119;-83
2022/06/24 09:25:27;;;;;;;7.90;3.22;;;;;;;32.19;28.51;100574.72;5072246;28;20400;-80
2022/06/24 09:27:53;;;;;;;7.93;2.90;;;;;;;32.04;28.52;100564.75;5036198;28;20048;-79
2022/06/24 09:30:19;;;;;;;14.10;5.22;;;;;;;32.08;28.30;100571.34;5051798;28;20028;-80
2022/06/24 09:32:51;;;;;;;7.57;2.95;;;;;;;32.02;28.26;100566.19;5020961;28;20380;-81
2022/06/24 09:35:17;;;;;;;4.60;2.40;;;;;;;32.27;28.11;100564.88;5032295;28;20039;-80
2022/06/24 09:37:44;;;;;;;6.85;2.40;;;;;;;32.21;28.33;100564.13;5051621;28;20037;-80
2022/06/24 09:40:26;;;;;;;5.53;2.47;;;;;;;32.62;27.72;100551.38;5070381;28;20055;-80
2022/06/24 09:46:22;;;;;;;5.30;2.33;;;;;;;32.30;27.74;100555.88;5072334;28;20044;-80
2022/06/24 09:48:47;;;;;;;7.75;2.88;;;;;;;32.12;28.17;100544.56;5016901;28;20036;-82
2022/06/24 09:51:14;;;;;;;5.10;2.85;;;;;;;32.61;27.66;100558.88;5052758;28;20470;-82
2022/06/24 09:53:40;;;;;;;7.80;2.67;;;;;;;32.28;27.80;100558.16;5054551;28;20025;-81
2022/06/24 09:56:08;;;;;;;9.10;3.00;;;;;;;31.73;28.98;100551.38;5059904;28;20549;-82
2022/06/24 09:58:38;;;;;;;5.85;2.70;;;;;;;32.16;28.31;100544.75;5037038;28;20116;-84
2022/06/24 10:01:06;;;;;;;7.53;3.05;;;;;;;32.29;28.04;100543.94;5035359;28;20037;-81
2022/06/24 10:03:33;;;;;;;8.02;2.53;;;;;;;32.26;27.90;100549.28;5038991;28;20122;-81
2022/06/24 10:06:04;;;;;;;29.85;2.90;;;;;;;32.10;27.27;100549.63;5060008;28;20044;-82
2022/06/24 10:08:32;;;;;;;14.23;2.55;;;;;;;32.91;26.58;100543.44;5070700;28;20032;-83
2022/06/24 10:10:59;;;;;;;18.33;3.63;;;;;;;32.73;26.09;100538.84;5036830;28;20129;-81
2022/06/24 10:13:32;;;;;;;13.43;2.60;;;;;;;32.33;26.02;100541.34;5018414;28;20041;-82
2022/06/24 10:16:02;;;;;;;10.15;2.70;;;;;;;32.43;25.81;100538.38;5035151;28;20039;-82
2022/06/24 10:18:44;;;;;;;8.32;2.95;;;;;;;32.06;25.79;100540.22;5021823;28;20048;-82
2022/06/24 10:21:10;;;;;;;10.30;2.50;;;;;;;31.52;26.68;100536.22;5018018;28;20045;-84
2022/06/24 10:23:40;;;;;;;9.27;2.53;;;;;;;31.05;27.66;100543.63;5017320;28;20037;-83
2022/06/24 10:26:28;;;;;;;10.05;2.40;;;;;;;30.86;27.77;100530.56;5028823;28;20094;-82
2022/06/24 10:29:05;;;;;;;12.25;2.50;;;;;;;31.13;27.22;100529.03;5053817;28;20143;-82
2022/06/24 10:31:49;;;;;;;9.32;2.25;;;;;;;31.34;27.16;100535.09;5068865;28;20032;-83
2022/06/24 10:34:29;;;;;;;12.63;2.83;;;;;;;32.02;26.62;100538.38;5069431;28;20037;-81
2022/06/24 10:37:05;;;;;;;7.60;2.53;;;;;;;33.44;25.40;100528.00;5066877;28;20041;-81
2022/06/24 10:39:32;;;;;;;6.70;2.67;;;;;;;34.05;24.40;100528.34;5051456;28;20131;-81
2022/06/24 10:42:06;;;;;;;10.13;2.95;;;;;;;34.70;23.37;100509.16;5052214;28;20033;-82
2022/06/24 10:44:35;;;;;;;16.17;2.40;;;;;;;34.30;23.61;100496.09;5050796;28;20412;-81
2022/06/24 10:47:04;;;;;;;10.55;2.25;;;;;;;33.29;24.09;100515.25;5019103;28;20051;-80
2022/06/24 10:49:51;;;;;;;7.65;2.40;;;;;;;32.88;24.99;100512.63;5042965;28;20049;-82
2022/06/24 10:52:51;;;;;;;9.80;2.50;;;;;;;33.04;24.94;100518.63;5054469;28;20094;-82
2022/06/24 10:55:16;;;;;;;11.02;2.30;;;;;;;33.34;24.66;100512.38;5040299;28;20029;-83
2022/06/24 10:57:42;;;;;;;5.78;2.47;;;;;;;33.45;24.83;100514.88;5063198;28;20514;-84
2022/06/24 11:00:23;;;;;;;7.72;2.40;;;;;;;32.93;25.07;100504.97;5054839;28;20481;-84
2022/06/24 11:03:04;;;;;;;13.82;2.85;;;;;;;33.48;24.61;100522.59;5035108;28;20081;-81
2022/06/24 11:06:02;;;;;;;20.67;2.60;;;;;;;33.19;24.45;100518.31;5053373;28;20033;-81
2022/06/24 11:08:31;;;;;;;12.77;2.83;;;;;;;33.30;24.54;100514.13;5058827;28;20142;-83
2022/06/24 11:11:01;;;;;;;17.45;2.97;;;;;;;33.35;23.96;100524.31;5037919;28;20071;-83
2022/06/24 11:13:27;;;;;;;8.38;3.00;;;;;;;33.46;24.24;100522.09;5055045;28;20120;-83
2022/06/24 11:16:17;;;;;;;22.30;2.72;;;;;;;33.12;24.39;100517.94;5037995;28;20131;-82
2022/06/24 11:18:48;;;;;;;7.18;2.50;;;;;;;32.20;25.17;100500.50;5049877;28;20064;-84
2022/06/24 11:21:18;;;;;;;5.78;2.40;;;;;;;32.40;25.21;100516.72;5039314;28;20044;-83
2022/06/24 11:23:48;;;;;;;10.90;2.58;;;;;;;32.50;24.93;100508.19;5072171;28;20029;-82
2022/06/24 11:26:17;;;;;;;11.98;2.97;;;;;;;32.65;25.51;100506.22;5054124;28;20160;-83
2022/06/24 11:28:48;;;;;;;66.38;3.85;;;;;;;32.39;25.77;100499.22;5037703;28;20036;-81
2022/06/24 11:31:29;;;;;;;9.88;2.30;;;;;;;32.54;25.25;100503.63;5053864;28;20036;-82
2022/06/24 11:34:03;;;;;;;12.45;2.60;;;;;;;31.91;25.95;100498.78;5019301;28;20059;-81
2022/06/24 11:36:31;;;;;;;13.88;2.50;;;;;;;32.01;25.83;100506.97;5049226;28;20032;-83
2022/06/24 11:38:58;;;;;;;13.65;2.53;;;;;;;32.46;25.21;100497.97;5022525;28;20032;-81
2022/06/24 11:41:33;;;;;;;6.80;2.30;;;;;;;32.38;24.75;100477.25;5038748;28;20063;-81
2022/06/24 11:43:59;;;;;;;14.88;2.67;;;;;;;32.54;25.08;100495.28;5018847;28;20032;-81
2022/06/24 11:46:25;;;;;;;9.13;2.20;;;;;;;32.68;24.90;100492.47;5053962;28;20056;-81
2022/06/24 11:49:26;;;;;;;13.25;2.28;;;;;;;32.56;25.29;100493.03;5017739;28;20135;-80
2022/06/24 11:51:52;;;;;;;8.63;2.50;;;;;;;32.11;26.31;100492.84;4937049;29;20054;-81
2022/06/24 11:54:18;;;;;;;6.47;2.70;;;;;;;31.74;26.65;100491.88;5022469;28;20033;-83
2022/06/24 11:56:44;;;;;;;10.88;2.83;;;;;;;31.79;26.96;100499.28;5025462;28;20068;-82
2022/06/24 11:59:11;;;;;;;11.70;2.80;;;;;;;31.23;27.69;100498.31;5033273;28;20035;-82
2022/06/24 12:01:38;;;;;;;8.43;2.30;;;;;;;30.92;28.53;100484.13;5031189;28;20075;-82
2022/06/24 12:04:08;;;;;;;9.52;2.53;;;;;;;30.47;29.20;100486.44;5037921;28;20032;-82
2022/06/24 12:06:34;;;;;;;5.85;2.47;;;;;;;30.66;29.57;100498.34;5044644;28;20040;-80